Time;durP1;ratioP1;P1;durP2;ratioP2;P2;SDS_P1;SDS_P2;PMS_P1;PMS_P2;Temp;Humidity;BMP_temperature;BMP_pressure;BME280_temperature;BME280_humidity;BME280_pressure;Samples;Min_cycle;Max_cycle;Signal;HPM_P1;HPM_P2
2023/10/03 00:01:06;;;;;;;;;;;;;;;17.84;97.86;101000.31;4922818;29;19915;-96
2023/10/03 00:03:34;;;;;;;;;;;;;;;17.83;97.95;100999.47;4922960;29;19921;-96
2023/10/03 00:06:03;;;;;;;;;;;;;;;17.83;97.77;100988.91;4922744;29;20485;-96
2023/10/03 00:08:28;;;;;;;;;;;;;;;17.83;98.05;100973.09;4922746;29;20010;-96
2023/10/03 00:11:01;;;;;;;;;;;;;;;17.85;97.59;100971.31;4921961;29;20450;-96
2023/10/03 00:13:26;;;;;;;;;;;;;;;17.86;98.16;100974.84;4923160;29;19915;-96
2023/10/03 00:15:52;;;;;;;;;;;;;;;17.87;98.17;100968.69;4921714;29;19914;-96
2023/10/03 00:18:20;;;;;;;;;;;;;;;17.87;97.62;100963.41;4921790;29;20395;-96
2023/10/03 00:20:47;;;;;;;;;;;;;;;17.87;97.48;100956.41;4921455;29;20001;-96
2023/10/03 00:23:12;;;;;;;;;;;;;;;17.88;97.67;100962.53;4922098;29;19973;-96
2023/10/03 00:26:00;;;;;;;;;;;;;;;17.87;97.43;100960.75;4921873;29;19907;-96
2023/10/03 00:28:33;;;;;;;;;;;;;;;17.86;97.25;100964.31;4922128;29;19994;-96
2023/10/03 00:31:17;;;;;;;;;;;;;;;17.84;97.23;100952.88;4922212;29;19938;-96
2023/10/03 00:33:44;;;;;;;;;;;;;;;17.83;97.27;100945.84;4921380;29;19922;-96
2023/10/03 00:36:23;;;;;;;;;;;;;;;17.81;97.14;100947.63;4921604;29;19919;-96
2023/10/03 00:38:50;;;;;;;;;;;;;;;17.77;97.37;100935.34;4920498;29;19919;-96
2023/10/03 00:41:19;;;;;;;;;;;;;;;17.74;97.15;100933.59;4925628;29;19982;-96
2023/10/03 00:44:04;;;;;;;;;;;;;;;17.73;97.45;100932.72;4921580;29;19921;-96
2023/10/03 00:46:34;;;;;;;;;;;;;;;17.72;97.34;100923.06;4922079;29;19915;-96
2023/10/03 00:49:10;;;;;;;;;;;;;;;17.73;97.73;100916.03;4923387;29;19915;-96
2023/10/03 00:51:40;;;;;;;;;;;;;;;17.73;97.31;100906.38;4922434;29;19970;-96
2023/10/03 00:54:13;;;;;;;;;;;;;;;17.74;97.28;100904.59;4921156;29;19919;-96
2023/10/03 00:57:22;;;;;;;;;;;;;;;17.75;97.59;100898.44;4922622;29;19914;-96
2023/10/03 00:59:28;;;;;;;;;;;;;;;17.78;97.82;100887.88;4931515;29;19918;-96
2023/10/03 01:01:59;;;;;;;;;;;;;;;17.79;97.97;100880.88;4923261;29;20361;-96
2023/10/03 01:04:31;;;;;;;;;;;;;;;17.80;97.45;100875.59;4922076;29;19977;-96
2023/10/03 01:07:00;;;;;;;;;;;;;;;17.81;97.17;100864.16;4923153;29;19918;-96
2023/10/03 01:09:30;;;;;;;;;;;;;;;17.83;97.34;100862.41;4923208;29;19969;-96
2023/10/03 01:11:58;;;;;;;;;;;;;;;17.87;97.57;100861.50;4924200;29;20003;-96
2023/10/03 01:14:26;;;;;;;;;;;;;;;17.89;97.23;100849.16;4923783;29;19915;-96
2023/10/03 01:16:55;;;;;;;;;;;;;;;17.93;96.76;100849.19;4922352;29;19922;-96
2023/10/03 01:19:24;;;;;;;;;;;;;;;17.94;96.66;100837.75;4921943;29;19919;-96
2023/10/03 01:21:50;;;;;;;;;;;;;;;17.96;96.80;100841.25;4923888;29;19915;-96
2023/10/03 01:24:26;;;;;;;;;;;;;;;17.98;96.39;100837.72;4923604;29;19915;-96
2023/10/03 01:26:52;;;;;;;;;;;;;;;17.99;96.55;100839.47;4921529;29;20480;-96
2023/10/03 01:29:21;;;;;;;;;;;;;;;18.00;96.58;100832.44;4923211;29;19921;-96
2023/10/03 01:31:50;;;;;;;;;;;;;;;18.03;96.32;100827.13;4923063;29;19942;-96
2023/10/03 01:34:26;;;;;;;;;;;;;;;18.03;96.23;100827.13;4924062;29;19962;-96
2023/10/03 01:36:52;;;;;;;;;;;;;;;18.04;95.98;100831.53;4923525;29;20013;-96
2023/10/03 01:39:19;;;;;;;;;;;;;;;18.04;96.08;100826.25;4923931;29;19925;-96
2023/10/03 01:41:50;;;;;;;;;;;;;;;18.05;96.02;100826.25;4923605;29;19915;-96
2023/10/03 01:44:18;;;;;;;;;;;;;;;18.06;95.93;100811.28;4923105;29;19967;-96
2023/10/03 01:46:49;;;;;;;;;;;;;;;18.12;95.57;100813.88;4923579;29;19915;-96
2023/10/03 01:49:17;;;;;;;;;;;;;;;18.13;95.27;100812.13;4924324;29;20001;-96
2023/10/03 01:51:46;;;;;;;;;;;;;;;18.15;95.09;100819.13;4926315;29;19914;-96
2023/10/03 01:54:11;;;;;;;;;;;;;;;18.16;95.00;100810.34;4927946;29;19915;-96
2023/10/03 01:56:56;;;;;;;;;;;;;;;18.17;94.87;100809.44;4928594;29;19925;-96
2023/10/03 01:59:21;;;;;;;;;;;;;;;18.16;95.05;100818.25;4928211;29;19919;-96
2023/10/03 02:01:47;;;;;;;;;;;;;;;18.17;94.98;100809.44;4928138;29;19915;-96
2023/10/03 02:04:15;;;;;;;;;;;;;;;18.19;95.04;100804.16;4928075;29;19993;-96
2023/10/03 02:06:40;;;;;;;;;;;;;;;18.22;94.50;100799.72;4926344;29;19926;-96
2023/10/03 02:09:10;;;;;;;;;;;;;;;18.25;94.65;100801.47;4927619;29;19923;-96
2023/10/03 02:11:35;;;;;;;;;;;;;;;18.27;94.46;100796.19;4927581;29;20373;-96
2023/10/03 02:14:07;;;;;;;;;;;;;;;18.32;94.38;100802.28;4926778;29;19915;-96
2023/10/03 02:16:51;;;;;;;;;;;;;;;18.35;94.01;100792.59;4925677;29;19915;-96
2023/10/03 02:19:27;;;;;;;;;;;;;;;18.40;93.56;100790.75;4926143;29;19919;-96
2023/10/03 02:22:01;;;;;;;;;;;;;;;18.38;93.83;100783.78;4925258;29;19918;-96
2023/10/03 02:24:32;;;;;;;;;;;;;;;18.40;93.53;100779.34;4927383;29;19922;-96
2023/10/03 02:27:13;;;;;;;;;;;;;;;18.44;93.44;100757.31;4924825;29;19915;-96
2023/10/03 02:29:39;;;;;;;;;;;;;;;18.48;93.41;100760.78;4926873;29;19918;-96
2023/10/03 02:32:18;;;;;;;;;;;;;;;18.53;93.02;100780.97;4929127;29;19953;-96
2023/10/03 02:34:47;;;;;;;;;;;;;;;18.55;92.49;100795.03;4927092;29;19915;-96
2023/10/03 02:37:13;;;;;;;;;;;;;;;18.55;92.78;100787.13;4928395;29;19960;-96
2023/10/03 02:39:41;;;;;;;;;;;;;;;18.55;92.72;100788.88;4926533;29;19919;-96
2023/10/03 02:42:13;;;;;;;;;;;;;;;18.52;92.29;100784.47;4925705;29;19922;-96
2023/10/03 02:44:39;;;;;;;;;;;;;;;18.56;92.34;100780.94;4925769;29;19958;-96
2023/10/03 02:47:05;;;;;;;;;;;;;;;18.58;92.10;100784.44;4926018;29;19921;-96
2023/10/03 02:49:30;;;;;;;;;;;;;;;18.59;92.35;100790.59;4925163;29;19954;-96
2023/10/03 02:51:59;;;;;;;;;;;;;;;18.54;92.23;100790.63;4926051;29;20379;-96
2023/10/03 02:54:34;;;;;;;;;;;;;;;18.57;92.12;100797.66;4925902;29;19914;-96
2023/10/03 02:57:01;;;;;;;;;;;;;;;18.65;91.81;100794.94;4926503;29;19918;-96
2023/10/03 02:59:29;;;;;;;;;;;;;;;18.70;91.60;100803.69;4927295;29;19919;-96
2023/10/03 03:02:00;;;;;;;;;;;;;;;18.66;91.59;100801.97;4925066;29;19946;-96
2023/10/03 03:04:40;;;;;;;;;;;;;;;18.65;91.82;100805.47;4926288;29;19921;-96
2023/10/03 03:07:05;;;;;;;;;;;;;;;18.62;91.73;100797.59;4927221;29;19946;-96
2023/10/03 03:09:40;;;;;;;;;;;;;;;18.65;91.48;100801.06;4927138;29;19927;-96
2023/10/03 03:12:09;;;;;;;;;;;;;;;18.69;91.41;100794.00;4926931;29;19978;-96
2023/10/03 03:14:37;;;;;;;;;;;;;;;18.71;91.21;100800.13;4912416;29;19926;-96
2023/10/03 03:17:13;;;;;;;;;;;;;;;18.93;90.84;100791.13;4928176;29;19918;-96
2023/10/03 03:19:43;;;;;;;;;;;;;;;18.88;91.58;100794.69;4929449;29;19943;-96
2023/10/03 03:22:21;;;;;;;;;;;;;;;18.90;91.60;100793.81;4928266;29;19915;-96
2023/10/03 03:25:00;;;;;;;;;;;;;;;18.97;91.80;100791.09;4928936;29;20054;-96
2023/10/03 03:27:29;;;;;;;;;;;;;;;19.00;91.95;100793.69;4929271;29;19926;-96
2023/10/03 03:30:22;;;;;;;;;;;;;;;18.99;92.63;100791.91;4929246;29;19958;-96
2023/10/03 03:32:49;;;;;;;;;;;;;;;18.96;92.33;100784.94;4944426;29;19922;-96
2023/10/03 03:35:24;;;;;;;;;;;;;;;18.90;92.56;100785.88;4927863;29;19923;-96
2023/10/03 03:37:55;;;;;;;;;;;;;;;18.88;92.40;100790.28;4928246;29;19919;-96
2023/10/03 03:40:34;;;;;;;;;;;;;;;18.84;92.35;100790.31;4929424;29;19914;-96
2023/10/03 03:43:00;;;;;;;;;;;;;;;18.81;92.38;100790.34;4925465;29;19961;-96
2023/10/03 03:45:28;;;;;;;;;;;;;;;18.79;92.59;100786.88;4922494;29;19915;-96
2023/10/03 03:47:58;;;;;;;;;;;;;;;18.76;92.78;100786.00;4923554;29;19919;-96
2023/10/03 03:50:29;;;;;;;;;;;;;;;18.77;92.52;100785.13;4923235;29;19925;-96
2023/10/03 03:53:03;;;;;;;;;;;;;;;18.86;92.34;100797.38;4925340;29;19915;-96
2023/10/03 03:55:31;;;;;;;;;;;;;;;18.84;92.27;100795.59;4926106;29;19954;-96
2023/10/03 03:57:59;;;;;;;;;;;;;;;18.81;92.70;100796.50;4926493;29;20289;-96
2023/10/03 04:00:34;;;;;;;;;;;;;;;18.82;93.30;100802.66;4928177;29;19914;-96
2023/10/03 04:03:08;;;;;;;;;;;;;;;18.85;93.23;100805.28;4927547;29;19922;-96
2023/10/03 04:05:35;;;;;;;;;;;;;;;18.84;93.56;100807.06;4930300;29;19915;-96
2023/10/03 04:08:03;;;;;;;;;;;;;;;18.86;93.29;100814.94;4929853;29;19923;-96
2023/10/03 04:10:38;;;;;;;;;;;;;;;18.91;93.58;100816.66;4927784;29;19915;-96
2023/10/03 04:13:10;;;;;;;;;;;;;;;18.90;93.50;100820.22;4927594;29;19915;-96
2023/10/03 04:15:45;;;;;;;;;;;;;;;18.89;93.72;100820.22;4918254;29;19919;-96
2023/10/03 04:18:21;;;;;;;;;;;;;;;19.02;93.93;100828.88;4944409;29;20017;-96
2023/10/03 04:20:49;;;;;;;;;;;;;;;18.97;93.91;100828.91;4932234;29;19915;-96
2023/10/03 04:23:14;;;;;;;;;;;;;;;18.98;93.97;100828.03;4931160;29;19923;-96
2023/10/03 04:25:40;;;;;;;;;;;;;;;18.97;94.18;100833.34;4932488;29;19918;-96
2023/10/03 04:28:11;;;;;;;;;;;;;;;18.99;94.11;100839.44;4930316;29;19926;-96
2023/10/03 04:30:53;;;;;;;;;;;;;;;19.01;93.39;100846.47;4932160;29;19914;-96
2023/10/03 04:33:20;;;;;;;;;;;;;;;19.01;93.91;100848.25;4930106;29;20014;-96
2023/10/03 04:35:50;;;;;;;;;;;;;;;19.04;93.47;100845.56;4930613;29;19921;-96
2023/10/03 04:38:16;;;;;;;;;;;;;;;19.34;90.77;100852.25;4930422;29;19980;-96
2023/10/03 04:40:59;;;;;;;;;;;;;;;19.26;90.13;100847.06;4931028;29;19921;-96
2023/10/03 04:43:31;;;;;;;;;;;;;;;19.33;90.00;100849.63;4929527;29;19921;-96
2023/10/03 04:46:01;;;;;;;;;;;;;;;19.10;90.86;100850.78;4933275;29;19915;-96
2023/10/03 04:48:28;;;;;;;;;;;;;;;19.03;91.29;100859.66;4932336;29;19953;-96
2023/10/03 04:50:57;;;;;;;;;;;;;;;18.99;91.82;100866.75;4928387;29;19940;-96
2023/10/03 04:53:23;;;;;;;;;;;;;;;19.05;91.62;100869.31;4928377;29;19983;-96
2023/10/03 04:55:53;;;;;;;;;;;;;;;19.18;90.47;100867.41;4929831;29;19915;-96
2023/10/03 04:58:24;;;;;;;;;;;;;;;19.03;90.84;100884.31;4928458;29;19919;-96
2023/10/03 05:00:49;;;;;;;;;;;;;;;18.82;92.01;100871.31;4928830;29;19918;-96
2023/10/03 05:03:17;;;;;;;;;;;;;;;18.72;92.87;100875.81;4930873;29;20348;-96
2023/10/03 05:05:52;;;;;;;;;;;;;;;18.91;91.74;100871.22;4930467;29;19923;-96
2023/10/03 05:08:20;;;;;;;;;;;;;;;18.97;89.68;100870.31;4929853;29;19923;-96
2023/10/03 05:10:54;;;;;;;;;;;;;;;18.99;89.28;100874.69;4930113;29;19938;-96
2023/10/03 05:13:19;;;;;;;;;;;;;;;18.76;90.27;100893.34;4930108;29;19949;-96
2023/10/03 05:15:45;;;;;;;;;;;;;;;18.70;90.56;100904.00;4930586;29;19915;-96
2023/10/03 05:18:10;;;;;;;;;;;;;;;18.74;90.16;100929.44;4930366;29;19930;-96
2023/10/03 05:20:40;;;;;;;;;;;;;;;18.76;89.98;100931.19;4930551;29;19915;-96
2023/10/03 05:23:06;;;;;;;;;;;;;;;18.72;90.10;100933.88;4929362;29;19948;-96
2023/10/03 05:25:36;;;;;;;;;;;;;;;18.69;90.31;100920.69;4932658;29;19914;-96
2023/10/03 05:28:02;;;;;;;;;;;;;;;18.71;89.59;100898.69;4933525;29;19919;-96
2023/10/03 05:30:30;;;;;;;;;;;;;;;18.55;90.74;100891.78;4933195;29;19919;-96
2023/10/03 05:32:58;;;;;;;;;;;;;;;18.38;91.46;100887.53;4935651;29;19915;-96
2023/10/03 05:35:31;;;;;;;;;;;;;;;18.30;92.10;100902.53;4936331;29;19961;-96
2023/10/03 05:38:03;;;;;;;;;;;;;;;18.33;92.67;100899.00;4935051;29;19915;-96
2023/10/03 05:40:32;;;;;;;;;;;;;;;18.30;92.53;100906.94;4936218;29;19966;-96
2023/10/03 05:43:03;;;;;;;;;;;;;;;18.44;91.14;100907.72;4933835;29;19915;-96
2023/10/03 05:45:34;;;;;;;;;;;;;;;18.39;91.67;100912.13;4933410;29;19954;-96
2023/10/03 05:48:03;;;;;;;;;;;;;;;18.30;92.55;100907.81;4934348;29;19915;-96
2023/10/03 05:50:48;;;;;;;;;;;;;;;18.31;92.68;100906.06;4934357;29;19919;-96
2023/10/03 05:53:14;;;;;;;;;;;;;;;18.22;93.30;100909.66;4932137;29;19954;-96
2023/10/03 05:55:41;;;;;;;;;;;;;;;18.34;93.07;100908.69;4933356;29;19914;-96
2023/10/03 05:58:07;;;;;;;;;;;;;;;18.27;93.52;100912.25;4932883;29;19922;-96
2023/10/03 06:00:51;;;;;;;;;;;;;;;18.22;93.49;100910.50;4932882;29;20300;-96
2023/10/03 06:03:16;;;;;;;;;;;;;;;18.17;93.75;100919.34;4934532;29;19921;-96
2023/10/03 06:06:01;;;;;;;;;;;;;;;18.21;93.42;100924.56;4934725;29;19951;-96
2023/10/03 06:08:27;;;;;;;;;;;;;;;18.16;93.87;100921.09;4934352;29;19929;-96
2023/10/03 06:10:56;;;;;;;;;;;;;;;18.19;94.03;100934.28;4934411;29;19962;-96
2023/10/03 06:13:21;;;;;;;;;;;;;;;18.10;94.35;100923.75;4932999;29;19946;-96
2023/10/03 06:15:47;;;;;;;;;;;;;;;18.11;94.68;100922.03;4933568;29;19918;-96
2023/10/03 06:18:12;;;;;;;;;;;;;;;18.18;94.26;100926.38;4935341;29;19919;-96
2023/10/03 06:20:44;;;;;;;;;;;;;;;18.15;94.37;100935.19;4932928;29;19919;-96
2023/10/03 06:23:12;;;;;;;;;;;;;;;18.10;94.61;100939.59;4933925;29;19938;-96
2023/10/03 06:25:40;;;;;;;;;;;;;;;18.19;94.46;100944.81;4935245;29;20001;-96
2023/10/03 06:28:09;;;;;;;;;;;;;;;18.14;95.12;100953.66;4936176;29;19915;-96
2023/10/03 06:30:36;;;;;;;;;;;;;;;18.16;95.41;100950.13;4935397;29;19907;-96
2023/10/03 06:33:05;;;;;;;;;;;;;;;18.05;96.05;100952.81;4937078;29;20360;-96
2023/10/03 06:35:31;;;;;;;;;;;;;;;18.12;96.13;100963.31;4934552;29;19966;-96
2023/10/03 06:38:02;;;;;;;;;;;;;;;18.01;96.26;100963.38;4936262;29;19922;-96
2023/10/03 06:40:33;;;;;;;;;;;;;;;18.06;96.69;100969.50;4936724;29;19950;-96
2023/10/03 06:43:01;;;;;;;;;;;;;;;18.05;97.08;100957.22;4935307;29;19915;-96
2023/10/03 06:45:27;;;;;;;;;;;;;;;17.97;97.03;100965.13;4934694;29;19982;-96
2023/10/03 06:48:03;;;;;;;;;;;;;;;17.93;97.59;100973.97;4934803;29;19957;-96
2023/10/03 06:50:37;;;;;;;;;;;;;;;17.90;98.15;100979.22;4935028;29;19919;-96
2023/10/03 06:53:13;;;;;;;;;;;;;;;17.88;97.79;100981.84;4935605;29;19939;-96
2023/10/03 06:55:40;;;;;;;;;;;;;;;17.85;98.83;100981.88;4936144;29;19950;-96
2023/10/03 06:58:06;;;;;;;;;;;;;;;17.81;99.05;101001.22;4931643;29;19920;-96
2023/10/03 07:00:32;;;;;;;;;;;;;;;17.80;99.10;101004.75;4932081;29;19915;-96
2023/10/03 07:03:00;;;;;;;;;;;;;;;17.78;99.35;101006.50;4933844;29;19921;-96
2023/10/03 07:05:28;;;;;;;;;;;;;;;17.77;99.38;101004.75;4932199;29;19943;-96
2023/10/03 07:07:59;;;;;;;;;;;;;;;17.79;99.54;101005.63;4933400;29;19915;-96
2023/10/03 07:10:27;;;;;;;;;;;;;;;17.77;99.57;101003.88;4932738;29;19922;-96
2023/10/03 07:12:58;;;;;;;;;;;;;;;17.80;100.00;101010.03;4934533;29;19994;-96
2023/10/03 07:15:28;;;;;;;;;;;;;;;17.81;100.00;101022.28;4935420;29;19921;-96
2023/10/03 07:18:03;;;;;;;;;;;;;;;17.79;100.00;101013.53;4939000;28;19899;-96
2023/10/03 07:21:03;;;;;;;;;;;;;;;17.81;100.00;101010.88;4961874;28;19930;-96
2023/10/03 07:23:35;;;;;;;;;;;;;;;17.67;100.00;101003.00;4942939;29;19962;-96
2023/10/03 07:26:26;;;;;;;;;;;;;;;17.62;100.00;101010.06;4942240;29;19994;-96
2023/10/03 07:28:57;;;;;;;;;;;;;;;17.53;100.00;101017.13;4939402;29;19935;-96
2023/10/03 07:31:30;;;;;;;;;;;;;;;17.53;100.00;101011.84;4919887;29;19930;-96
2023/10/03 07:34:02;;;;;;;;;;;;;;;17.51;100.00;101010.97;4924013;28;20479;-96
2023/10/03 07:36:34;;;;;;;;;;;;;;;17.54;100.00;101003.06;4924840;29;19930;-96
2023/10/03 07:39:00;;;;;;;;;;;;;;;17.58;100.00;101022.34;4921806;29;19919;-96
2023/10/03 07:42:01;;;;;;;;;;;;;;;17.55;100.00;101019.75;4911961;29;19926;-96
2023/10/03 07:44:30;;;;;;;;;;;;;;;17.52;100.00;101018.00;4959565;29;19898;-96
2023/10/03 07:47:03;;;;;;;;;;;;;;;17.53;100.00;101027.66;4941566;29;19986;-96
2023/10/03 07:49:28;;;;;;;;;;;;;;;17.61;100.00;101045.19;4942463;29;19915;-96
2023/10/03 07:52:07;;;;;;;;;;;;;;;17.62;100.00;101060.13;4940447;29;19911;-96
2023/10/03 07:54:37;;;;;;;;;;;;;;;17.60;100.00;101051.34;4939962;29;19914;-96
2023/10/03 07:57:05;;;;;;;;;;;;;;;17.73;100.00;101066.28;4940496;29;19962;-96
2023/10/03 07:59:35;;;;;;;;;;;;;;;17.63;100.00;101051.38;4940012;29;19969;-96
2023/10/03 08:02:05;;;;;;;;;;;;;;;17.62;100.00;101045.19;4938009;29;19910;-96
2023/10/03 08:04:42;;;;;;;;;;;;;;;17.68;100.00;101052.22;4938568;29;19919;-96
2023/10/03 08:07:24;;;;;;;;;;;;;;;;;;;;;
2023/10/03 08:10:21;;;;;;;;;;;;;;;17.69;100.00;101072.44;4959463;28;19942;-96
2023/10/03 08:20:57;;;;;;;;;;;;;;;17.72;100.00;101101.41;5681848;23;19927;-96
2023/10/03 08:23:25;;;;;;;;;;;;;;;17.60;100.00;101133.94;4958207;29;19950;-96
2023/10/03 08:26:02;;;;;;;;;;;;;;;17.49;100.00;101138.31;4956709;29;19923;-96
2023/10/03 08:28:38;;;;;;;;;;;;;;;17.55;100.00;101131.31;4953088;29;19961;-96
2023/10/03 08:31:06;;;;;;;;;;;;;;;17.47;100.00;101122.50;4937424;29;19934;-96
2023/10/03 08:33:48;;;;;;;;;;;;;;;17.52;100.00;101135.69;4937115;29;19942;-96
2023/10/03 08:36:23;;;;;;;;;;;;;;;17.49;100.00;101141.81;4936302;29;20006;-96
2023/10/03 08:39:04;;;;;;;;;;;;;;;17.42;100.00;101131.28;4936722;29;19918;-96
2023/10/03 08:41:54;;;;;;;;;;;;;;;17.42;100.00;101150.59;4936405;29;19961;-96
2023/10/03 08:44:23;;;;;;;;;;;;;;;17.52;100.00;101162.91;4934933;29;20005;-96
2023/10/03 08:47:00;;;;;;;;;;;;;;;17.63;100.00;101154.13;4933660;29;19918;-96
2023/10/03 08:49:56;;;;;;;;;;;;;;;17.84;100.00;101156.75;4918067;29;19922;-96
2023/10/03 08:52:39;;;;;;;;;;;;;;;17.81;99.82;101177.81;4930290;29;19918;-96
2023/10/03 08:55:31;;;;;;;;;;;;;;;;;;;;;
2023/10/03 08:58:02;;;;;;;;;;;;;;;17.50;100.00;101185.75;4962557;28;19958;-96
2023/10/03 09:00:40;;;;;;;;;;;;;;;17.38;100.00;101193.66;4954320;29;19919;-96
2023/10/03 09:03:17;;;;;;;;;;;;;;;17.56;100.00;101217.34;4954808;29;19918;-96
2023/10/03 09:05:47;;;;;;;;;;;;;;;17.53;97.52;101214.72;4955716;29;19899;-96
2023/10/03 09:08:14;;;;;;;;;;;;;;;17.30;97.47;101219.97;4955301;29;19915;-96
2023/10/03 09:10:55;;;;;;;;;;;;;;;16.86;100.00;101224.19;4958879;29;19930;-96
2023/10/03 09:13:35;;;;;;;;;;;;;;;16.72;100.00;101222.41;4958003;29;19926;-96
2023/10/03 09:16:08;;;;;;;;;;;;;;;16.61;100.00;101232.84;4956381;29;19970;-96
2023/10/03 09:18:41;;;;;;;;;;;;;;;16.67;100.00;101240.81;4955909;29;19918;-96
2023/10/03 09:21:33;;;;;;;;;;;;;;;16.61;100.00;101243.38;4972797;28;19929;-96
2023/10/03 09:24:07;;;;;;;;;;;;;;;16.66;100.00;101260.94;4972519;29;19923;-96
2023/10/03 09:26:51;;;;;;;;;;;;;;;16.72;100.00;101273.25;4943191;29;19914;-96
2023/10/03 09:29:42;;;;;;;;;;;;;;;16.75;100.00;101278.53;4938186;29;19995;-96
2023/10/03 09:32:14;;;;;;;;;;;;;;;16.71;100.00;101286.41;4938405;29;19922;-96
2023/10/03 09:34:56;;;;;;;;;;;;;;;16.73;100.00;101293.44;4939033;29;19915;-96
2023/10/03 09:37:28;;;;;;;;;;;;;;;16.69;100.00;101295.16;4939293;29;19909;-96
2023/10/03 09:40:00;;;;;;;;;;;;;;;16.62;100.00;101287.25;4940584;29;19929;-96
2023/10/03 09:42:53;;;;;;;;;;;;;;;16.65;100.00;101290.75;4958157;29;19946;-96
2023/10/03 09:45:27;;;;;;;;;;;;;;;16.89;100.00;101288.28;4956420;29;19914;-96
2023/10/03 09:47:58;;;;;;;;;;;;;;;16.69;100.00;101283.78;4955174;29;19986;-96
2023/10/03 09:50:32;;;;;;;;;;;;;;;16.67;100.00;101290.78;4956700;29;19915;-96
2023/10/03 09:53:13;;;;;;;;;;;;;;;16.59;100.00;101303.00;4972280;29;19914;-96
2023/10/03 09:55:47;;;;;;;;;;;;;;;16.56;100.00;101314.38;4957375;29;19946;-96
2023/10/03 09:58:24;;;;;;;;;;;;;;;16.73;100.00;101316.22;4956921;29;19918;-96
2023/10/03 10:01:01;;;;;;;;;;;;;;;16.58;100.00;101319.66;4957327;29;19981;-96
2023/10/03 10:03:42;;;;;;;;;;;;;;;16.52;100.00;101307.34;4957351;29;19907;-96
2023/10/03 10:06:47;;;;;;;;;;;;;;;16.51;100.00;101316.09;4959464;29;19914;-96
2023/10/03 10:09:34;;;;;;;;;;;;;;;16.59;100.00;101339.84;4953914;28;19921;-96
2023/10/03 10:12:19;;;;;;;;;;;;;;;16.57;100.00;101347.72;4943746;29;19978;-96
2023/10/03 10:15:31;;;;;;;;;;;;;;;;;;;;;
2023/10/03 10:18:13;;;;;;;;;;;;;;;16.68;100.00;101346.06;4959509;29;19950;-96
2023/10/03 10:20:48;;;;;;;;;;;;;;;16.71;100.00;101366.22;4941734;29;19978;-96
2023/10/03 10:23:24;;;;;;;;;;;;;;;16.75;99.61;101375.03;4959454;29;19947;-96
2023/10/03 10:29:06;;;;;;;;;;;;;;;16.51;99.51;101380.13;4979066;29;19934;-96
2023/10/03 10:31:47;;;;;;;;;;;;;;;16.46;100.00;101384.47;4973971;29;19942;-96
2023/10/03 10:34:46;;;;;;;;;;;;;;;16.50;100.00;101388.88;4979537;29;19949;-96
2023/10/03 10:37:54;;;;;;;;;;;;;;;16.52;100.00;101389.78;4962730;29;19914;-96
2023/10/03 10:40:33;;;;;;;;;;;;;;;16.44;100.00;101393.22;4940237;29;19923;-96
2023/10/03 10:46:28;;;;;;;;;;;;;;;16.52;100.00;101410.84;4979492;29;19921;-96
2023/10/03 10:49:20;;;;;;;;;;;;;;;16.58;100.00;101424.91;4962408;29;20005;-96
2023/10/03 10:52:13;;;;;;;;;;;;;;;16.49;99.93;101429.22;4961106;29;19914;-96
2023/10/03 10:54:42;;;;;;;;;;;;;;;16.19;100.00;101431.56;4958601;29;19985;-96
2023/10/03 10:57:31;;;;;;;;;;;;;;;16.00;100.00;101428.75;4960891;29;19942;-96
2023/10/03 11:00:22;;;;;;;;;;;;;;;15.76;100.00;101430.22;4960925;29;19965;-96
2023/10/03 11:02:52;;;;;;;;;;;;;;;15.91;100.00;101439.16;4959091;29;19919;-96
2023/10/03 11:05:25;;;;;;;;;;;;;;;15.75;100.00;101438.06;4958564;29;19922;-96
2023/10/03 11:07:50;;;;;;;;;;;;;;;15.85;100.00;101442.59;4956664;29;19922;-96
2023/10/03 11:10:38;;;;;;;;;;;;;;;15.63;100.00;101444.94;4956166;29;19914;-96
2023/10/03 11:13:12;;;;;;;;;;;;;;;15.57;100.00;101457.09;4973952;29;19953;-96
2023/10/03 11:15:40;;;;;;;;;;;;;;;15.53;100.00;101457.94;4955363;29;19919;-96
2023/10/03 11:18:16;;;;;;;;;;;;;;;15.47;100.00;101466.63;4959011;29;19914;-96
2023/10/03 11:20:55;;;;;;;;;;;;;;;15.44;100.00;101456.97;4960466;28;19921;-96
2023/10/03 11:23:34;;;;;;;;;;;;;;;15.43;100.00;101443.81;4958641;29;19969;-96
2023/10/03 11:26:04;;;;;;;;;;;;;;;15.33;100.00;101449.81;4955384;29;20376;-96
2023/10/03 11:28:51;;;;;;;;;;;;;;;15.42;100.00;101456.03;4956150;29;19914;-96
2023/10/03 11:31:30;;;;;;;;;;;;;;;15.39;100.00;101456.00;4954209;29;19921;-96
2023/10/03 11:34:03;;;;;;;;;;;;;;;15.50;100.00;101464.03;4952422;29;19914;-96
2023/10/03 11:36:42;;;;;;;;;;;;;;;15.60;100.00;101465.06;4952108;29;20284;-96
2023/10/03 11:39:13;;;;;;;;;;;;;;;15.76;100.00;101472.25;4951480;29;19954;-96
2023/10/03 11:41:41;;;;;;;;;;;;;;;15.96;100.00;101474.25;4951097;29;20215;-96
2023/10/03 11:44:36;;;;;;;;;;;;;;;15.95;100.00;101483.88;4948644;29;19914;-96
2023/10/03 11:47:02;;;;;;;;;;;;;;;15.81;100.00;101483.75;4950561;29;19929;-96
2023/10/03 11:49:30;;;;;;;;;;;;;;;15.93;100.00;101492.63;4950453;29;19959;-96
2023/10/03 11:52:01;;;;;;;;;;;;;;;15.96;100.00;101495.28;4953222;29;19915;-96
2023/10/03 11:54:45;;;;;;;;;;;;;;;15.84;100.00;101511.78;4952314;29;19914;-96
2023/10/03 11:57:15;;;;;;;;;;;;;;;16.06;100.00;101512.03;4950832;29;19914;-96
2023/10/03 11:59:53;;;;;;;;;;;;;;;15.90;100.00;101524.13;4949415;29;20375;-96
2023/10/03 12:02:24;;;;;;;;;;;;;;;15.74;100.00;101541.41;4950614;29;19914;-96
2023/10/03 12:04:54;;;;;;;;;;;;;;;15.61;100.00;101542.97;4951074;29;19922;-96
2023/10/03 12:07:43;;;;;;;;;;;;;;;;;;;;;
2023/10/03 12:10:12;;;;;;;;;;;;;;;15.48;100.00;101540.19;4969070;29;19957;-96
2023/10/03 12:12:39;;;;;;;;;;;;;;;15.46;100.00;101544.53;4951713;29;19922;-96
2023/10/03 12:18:20;;;;;;;;;;;;;;;15.51;100.00;101563.00;4970167;29;19921;-96
2023/10/03 12:20:53;;;;;;;;;;;;;;;15.63;100.00;101576.28;4951367;28;19921;-96
2023/10/03 12:23:32;;;;;;;;;;;;;;;15.70;100.00;101581.63;4953635;29;19926;-96
2023/10/03 12:26:06;;;;;;;;;;;;;;;15.64;100.00;101583.31;4952841;29;19922;-96
2023/10/03 12:28:39;;;;;;;;;;;;;;;15.60;100.00;101586.75;4954505;29;20424;-96
2023/10/03 12:31:17;;;;;;;;;;;;;;;15.69;100.00;101596.53;4953041;29;19921;-96
2023/10/03 12:33:55;;;;;;;;;;;;;;;;;;;;;
2023/10/03 12:36:23;;;;;;;;;;;;;;;15.61;100.00;101598.13;4965829;29;19961;-96
2023/10/03 12:39:05;;;;;;;;;;;;;;;15.58;100.00;101605.97;4936298;29;19926;-96
2023/10/03 12:41:31;;;;;;;;;;;;;;;15.95;100.00;101609.19;4934905;29;19915;-96
2023/10/03 12:43:59;;;;;;;;;;;;;;;15.95;100.00;101619.69;4936822;29;19922;-96
2023/10/03 12:46:41;;;;;;;;;;;;;;;15.96;100.00;101616.19;4951385;29;19918;-96
2023/10/03 12:49:10;;;;;;;;;;;;;;;16.19;100.00;101615.63;4957018;29;19942;-96
2023/10/03 12:51:35;;;;;;;;;;;;;;;16.31;100.00;101626.31;4955990;29;19997;-96
2023/10/03 12:54:35;;;;;;;;;;;;;;;16.24;99.85;101632.34;4955782;29;19949;-96
2023/10/03 12:57:22;;;;;;;;;;;;;;;16.02;98.22;101645.22;4956960;29;19949;-96
2023/10/03 13:00:23;;;;;;;;;;;;;;;;;;;;;
2023/10/03 13:03:00;;;;;;;;;;;;;;;15.65;100.00;101653.38;4974171;29;19946;-96
2023/10/03 13:05:52;;;;;;;;;;;;;;;;;;;;;
2023/10/03 13:08:36;;;;;;;;;;;;;;;15.50;100.00;101650.53;4960846;29;19965;-96
2023/10/03 13:11:06;;;;;;;;;;;;;;;15.41;100.00;101659.13;4959810;29;19966;-96
2023/10/03 13:13:55;;;;;;;;;;;;;;;;;;;;;
2023/10/03 13:17:01;;;;;;;;;;;;;;;;;;;;;
2023/10/03 13:19:30;;;;;;;;;;;;;;;15.25;100.00;101689.50;4968401;29;20009;-96
2023/10/03 13:21:58;;;;;;;;;;;;;;;15.12;100.00;101696.25;4944484;29;19958;-96
2023/10/03 13:24:31;;;;;;;;;;;;;;;14.95;100.00;101713.44;4943054;29;19918;-96
2023/10/03 13:27:02;;;;;;;;;;;;;;;14.89;100.00;101706.31;4945465;29;19918;-96
2023/10/03 13:29:30;;;;;;;;;;;;;;;14.80;100.00;101715.75;4949577;29;19914;-96
2023/10/03 13:31:58;;;;;;;;;;;;;;;14.74;100.00;101722.66;4949778;29;19964;-96
2023/10/03 13:34:37;;;;;;;;;;;;;;;14.80;100.00;101723.63;4952466;29;19914;-96